Missouriborg — PFBI — position and weather

sailwx.info

Track history (hours):
 
Tides and Currents Weather Stations Pressure Air Temp Water Temp Dewpoint Dewpoint Depression Visibility Wind Speed Wind Dir Waves Ship Positions

Missouriborg

Last reported at 2018-May-21 18:35 UTC. Time now 2018-May-22 02:05 UTC.
Position N 36°00' W 005°11'.

Length 135 m; draft 7.3 m.

Type: Ship. MMSI: 245170000.

Date/timePositionNaut miles runAvg speedWind from/ knotsBaromVisibWave heightAir tempDewpointWater temp
2018-May-21 18:35N 36°00' W 005°11'114.1
2018-May-21 18:29N 36°00' W 005°12'713.9
2018-May-21 18:00N 35°59' W 005°20'713.7
2018-May-21 17:28N 35°57' W 005°29'16512.0
2018-May-21 03:42N 36°28' W 008°50'2511.7
2018-May-21 01:32N 36°36' W 009°20'111.9
2018-May-21 01:30N 36°36' W 009°21'711.9
2018-May-21 00:55N 36°41' W 009°27'711.8
2018-May-21 00:18N 36°46' W 009°33'411.7
2018-May-20 23:57N 36°50' W 009°35'612.1
2018-May-20 23:29N 36°56' W 009°36'712.1
2018-May-20 22:54N 37°03' W 009°38'511.9
2018-May-20 22:31N 37°07' W 009°39'611.8
2018-May-20 22:00N 37°13' W 009°41'611.9
2018-May-20 21:30N 37°19' W 009°42'611.9
2018-May-20 21:01N 37°25' W 009°44'611.7
2018-May-20 20:30N 37°30' W 009°46'612.1
2018-May-20 20:01N 37°36' W 009°47'612.0
2018-May-20 19:30N 37°42' W 009°49'712.1
2018-May-20 18:58N 37°49' W 009°51'512.0
2018-May-20 18:31N 37°54' W 009°52'611.9
2018-May-20 18:01N 37°60' W 009°54'611.8
2018-May-20 17:30N 38°05' W 009°56'611.6
2018-May-20 17:00N 38°11' W 009°57'612.1
2018-May-20 16:31N 38°17' W 009°59'612.4
2018-May-20 16:01N 38°23' W 010°01'612.6
2018-May-20 15:31N 38°29' W 010°02'612.4
2018-May-20 15:00N 38°35' W 010°04'612.5
2018-May-20 14:30N 38°41' W 010°06'612.3
2018-May-20 14:01N 38°47' W 010°06'612.1
2018-May-20 13:30N 38°54' W 010°06'612.3
2018-May-20 13:01N 38°60' W 010°06'612.3
2018-May-20 12:31N 39°06' W 010°06'612.8
2018-May-20 12:00N 39°12' W 010°06'612.2
2018-May-20 11:30N 39°18' W 010°06'612.0
2018-May-20 11:00N 39°24' W 010°06'612.0
2018-May-20 10:30N 39°30' W 010°06'712.1
2018-May-20 09:56N 39°37' W 010°06'712.3
2018-May-20 09:23N 39°44' W 010°06'512.1
2018-May-20 09:00N 39°49' W 010°06'612.4
2018-May-20 08:29N 39°55' W 010°06'612.3
2018-May-20 08:01N 40°01' W 010°06'612.0
2018-May-20 07:30N 40°07' W 010°06'28111.8
2018-May-19 07:35N 44°44' W 009°02'20811.9
2018-May-18 14:07N 47°47' W 006°40'111.3
2018-May-18 14:00N 47°49' W 006°39'711.8
2018-May-18 13:23N 47°55' W 006°34'512.3
2018-May-18 13:00N 47°59' W 006°31'2213.0
2018-May-18 11:18N 48°19' W 006°15'413.5
2018-May-18 11:00N 48°22' W 006°12'713.7
2018-May-18 10:30N 48°28' W 006°07'713.6
2018-May-18 10:00N 48°34' W 006°02'713.3
2018-May-18 09:30N 48°40' W 005°57'612.9
2018-May-18 09:00N 48°46' W 005°53'612.5
2018-May-18 08:30N 48°51' W 005°48'611.3
2018-May-18 08:00N 48°55' W 005°42'611.1
2018-May-18 07:30N 48°58' W 005°35'510.7
2018-May-18 07:00N 49°01' W 005°28'510.3
2018-May-18 06:30N 49°03' W 005°21'510.2
2018-May-18 06:00N 49°06' W 005°14'510.1
2018-May-18 05:30N 49°08' W 005°08'510.2
2018-May-18 05:00N 49°11' W 005°01'510.6
2018-May-18 04:30N 49°14' W 004°54'510.9
2018-May-18 04:00N 49°16' W 004°47'611.4
2018-May-18 03:30N 49°19' W 004°39'612.0
2018-May-18 03:00N 49°23' W 004°32'612.6
2018-May-18 02:30N 49°26' W 004°23'713.2
2018-May-18 02:00N 49°29' W 004°14'713.6
2018-May-18 01:30N 49°32' W 004°05'713.8
2018-May-18 00:59N 49°36' W 003°56'713.8
2018-May-18 00:30N 49°39' W 003°47'1313.3
2018-May-17 23:32N 49°46' W 003°30'012.7
2018-May-17 23:30N 49°46' W 003°29'612.4
2018-May-17 23:01N 49°49' W 003°21'611.7
2018-May-17 22:28N 49°52' W 003°12'511.0
2018-May-17 22:00N 49°55' W 003°06'510.2
2018-May-17 21:30N 49°57' W 002°59'5 9.7
2018-May-17 20:59N 49°59' W 002°51'5 9.3
2018-May-17 20:27N 50°00' W 002°44'4 9.1
2018-May-17 19:59N 50°01' W 002°37'5 9.4
2018-May-17 19:25N 50°03' W 002°29'5 9.9
2018-May-17 18:52N 50°04' W 002°21'410.5
2018-May-17 18:27N 50°06' W 002°15'511.2
2018-May-17 18:00N 50°07' W 002°07'612.3
2018-May-17 17:30N 50°09' W 001°58'713.4
2018-May-17 17:00N 50°11' W 001°48'714.2
2018-May-17 16:30N 50°13' W 001°38'714.7
2018-May-17 16:00N 50°15' W 001°27'815.1
2018-May-17 15:31N 50°17' W 001°15'815.3
2018-May-17 15:00N 50°19' W 001°04'815.1
2018-May-17 14:28N 50°22' W 000°51'913.7
2018-May-17 13:50N 50°24' W 000°38'613.1
2018-May-17 13:22N 50°26' W 000°29'412.6
2018-May-17 13:00N 50°27' W 000°22'611.9
2018-May-17 12:30N 50°29' W 000°13'611.2
2018-May-17 11:59N 50°30' W 000°04'510.6
2018-May-17 11:29N 50°32' E 000°04'510.0
2018-May-17 11:00N 50°33' E 000°11'5 9.5
2018-May-17 10:30N 50°34' E 000°18'5 9.1
2018-May-17 09:59N 50°35' E 000°25'5 9.3
2018-May-17 09:29N 50°37' E 000°32'510.1
2018-May-17 09:00N 50°39' E 000°39'611.1
2018-May-17 08:30N 50°43' E 000°46'612.1
2018-May-17 08:00N 50°46' E 000°54'713.1
2018-May-17 07:30N 50°50' E 001°02'813.6
2018-May-17 06:54N 50°56' E 001°12'613.8
2018-May-17 06:27N 50°60' E 001°19'813.7
2018-May-17 05:53N 51°05' E 001°28'512.6
2018-May-17 05:30N 51°08' E 001°35'611.5
2018-May-17 05:00N 51°11' E 001°41'511.0
2018-May-17 04:30N 51°16' E 001°47'510.4
2018-May-17 04:00N 51°20' E 001°51'5 9.8
2018-May-17 03:30N 51°24' E 001°55'5 9.6
2018-May-17 03:00N 51°29' E 001°59'5 9.6
2018-May-17 02:29N 51°32' E 002°04'5 9.8
2018-May-17 02:00N 51°36' E 002°09'5 9.7
2018-May-17 01:30N 51°40' E 002°14'5 9.8
2018-May-17 00:57N 51°44' E 002°20'510.5
2018-May-17 00:30N 51°47' E 002°25'511.0
2018-May-17 00:00N 51°51' E 002°31'611.7
2018-May-16 23:29N 51°56' E 002°37'612.1
2018-May-16 23:00N 52°00' E 002°44'612.2
2018-May-16 22:30N 52°05' E 002°50'612.5
2018-May-16 22:00N 52°09' E 002°57'612.6
2018-May-16 21:30N 52°14' E 003°04'612.8
2018-May-16 21:01N 52°19' E 003°09'612.7
2018-May-16 20:31N 52°25' E 003°15'612.5
2018-May-16 20:00N 52°30' E 003°21'612.0
2018-May-16 19:30N 52°35' E 003°27'611.5
2018-May-16 19:00N 52°39' E 003°33'610.8
2018-May-16 18:30N 52°43' E 003°38'510.6
2018-May-16 18:01N 52°48' E 003°44'510.2
2018-May-16 17:30N 52°52' E 003°49'5 9.9
2018-May-16 17:01N 52°55' E 003°54'5 9.8
2018-May-16 16:30N 52°59' E 004°00'5 9.6
2018-May-16 15:59N 53°02' E 004°07'5 9.9
2018-May-16 15:26N 53°05' E 004°13'510.5
2018-May-16 14:58N 53°08' E 004°20'510.8
2018-May-16 14:29N 53°13' E 004°25'711.9
2018-May-16 13:53N 53°19' E 004°30'1312.2
2018-May-16 12:47N 53°32' E 004°36'411.9
2018-May-16 12:27N 53°36' E 004°38'11811.5
2018-May-16 02:09N 55°22' E 006°09'212.2
2018-May-16 01:57N 55°24' E 006°11'612.2
2018-May-16 01:30N 55°28' E 006°17'612.2
2018-May-16 01:00N 55°33' E 006°23'15311.5
2018-May-15 11:43N 57°32' E 009°18'311.4
2018-May-15 11:30N 57°33' E 009°22'611.4
2018-May-15 11:01N 57°35' E 009°32'611.5
2018-May-15 10:30N 57°38' E 009°41'611.5
2018-May-15 10:01N 57°41' E 009°51'611.5
2018-May-15 09:30N 57°42' E 010°01'611.8
2018-May-15 09:00N 57°45' E 010°11'611.4
2018-May-15 08:31N 57°47' E 010°21'611.5
2018-May-15 08:01N 57°48' E 010°32'611.9
2018-May-15 07:30N 57°48' E 010°43'611.5
2018-May-15 07:00N 57°47' E 010°53'611.4
2018-May-15 06:31N 57°44' E 011°03'611.6
2018-May-15 06:00N 57°42' E 011°13'611.7
2018-May-15 05:30N 57°39' E 011°23'611.7
2018-May-15 05:01N 57°37' E 011°33'4 8.9
2018-May-15 04:31N 57°36' E 011°41'0 0.1
2018-May-15 04:00N 57°36' E 011°41'0 0.0
2018-May-15 03:31N 57°36' E 011°41'0 0.0
2018-May-15 03:00N 57°36' E 011°41'0 0.1
2018-May-15 02:31N 57°36' E 011°41'0 0.0
2018-May-15 02:01N 57°36' E 011°41'0 0.0
2018-May-15 01:31N 57°36' E 011°40'0 0.0
2018-May-15 01:01N 57°36' E 011°40'0 0.0
2018-May-15 00:31N 57°36' E 011°40'0 0.2
2018-May-15 00:00N 57°36' E 011°40'2 4.9
2018-May-14 23:30N 57°34' E 011°37'611.5
2018-May-14 23:01N 57°29' E 011°35'611.8
2018-May-14 22:31N 57°23' E 011°35'611.8
2018-May-14 22:01N 57°17' E 011°36'611.9
2018-May-14 21:30N 57°11' E 011°37'612.1
2018-May-14 21:00N 57°05' E 011°41'612.0
2018-May-14 20:29N 56°59' E 011°45'611.5
2018-May-14 19:58N 56°54' E 011°49'4211.2
2018-May-14 16:14N 56°14' E 012°15'311.6
2018-May-14 15:56N 56°12' E 012°20'511.4
2018-May-14 15:30N 56°09' E 012°27'612.4
2018-May-14 15:00N 56°05' E 012°36'612.4
2018-May-14 14:30N 56°00' E 012°41'611.8
2018-May-14 14:00N 55°55' E 012°44'611.8
2018-May-14 13:30N 55°49' E 012°43'611.9
2018-May-14 13:00N 55°43' E 012°41'611.1
2018-May-14 12:30N 55°37' E 012°42'5 9.5
2018-May-14 12:00N 55°33' E 012°43'611.4
2018-May-14 11:31N 55°27' E 012°42'611.5
2018-May-14 11:00N 55°21' E 012°40'510.6
2018-May-14 10:29N 55°17' E 012°47'711.6
2018-May-14 09:55N 55°16' E 012°58'711.8
2018-May-14 09:22N 55°15' E 013°10'1311.9
2018-May-14 08:15N 55°15' E 013°33'412.1
2018-May-14 07:57N 55°15' E 013°39'612.2
2018-May-14 07:28N 55°14' E 013°49'612.2
2018-May-14 07:00N 55°14' E 013°59'612.1
2018-May-14 06:30N 55°14' E 014°10'510.8
2018-May-14 06:01N 55°16' E 014°18'612.0
2018-May-14 05:31N 55°20' E 014°26'612.2
2018-May-14 05:01N 55°25' E 014°33'611.8
2018-May-14 04:31N 55°28' E 014°41'611.7
2018-May-14 04:00N 55°31' E 014°50'611.9
2018-May-14 03:30N 55°34' E 014°59'611.8
2018-May-14 03:01N 55°37' E 015°08'611.6
2018-May-14 02:30N 55°40' E 015°17'611.8
2018-May-14 02:01N 55°43' E 015°26'611.9
2018-May-14 01:31N 55°46' E 015°35'611.8
2018-May-14 01:00N 55°49' E 015°45'611.8
2018-May-14 00:31N 55°52' E 015°54'611.8
2018-May-14 00:00N 55°55' E 016°03'611.7
2018-May-13 23:30N 55°58' E 016°12'611.8
2018-May-13 23:01N 56°01' E 016°21'611.9
2018-May-13 22:30N 56°04' E 016°30'611.8
2018-May-13 22:00N 56°07' E 016°39'611.2
2018-May-13 21:30N 56°12' E 016°45'611.8
2018-May-13 21:00N 56°17' E 016°49'611.9
2018-May-13 20:30N 56°23' E 016°53'611.8
2018-May-13 20:00N 56°28' E 016°57'16811.7
2018-May-13 05:38N 58°58' E 019°20'112.0
2018-May-13 05:30N 58°60' E 019°22'4011.8
2018-May-13 02:06N 59°35' E 019°58'311.7
2018-May-13 01:50N 59°38' E 019°55'411.8
2018-May-13 01:30N 59°41' E 019°50'1211.8
2018-May-13 00:29N 59°50' E 019°35'611.5
2018-May-12 23:59N 59°55' E 019°28'611.7
2018-May-12 23:30N 59°59' E 019°21'611.9
2018-May-12 23:00N 60°04' E 019°13'611.8
2018-May-12 22:30N 60°08' E 019°05'611.2
2018-May-12 22:00N 60°13' E 019°01'611.6
2018-May-12 21:30N 60°19' E 018°60'611.5
2018-May-12 21:00N 60°25' E 018°59'611.6
2018-May-12 20:30N 60°31' E 018°59'611.4
2018-May-12 20:00N 60°36' E 019°01'  
Track history (hours):
 
Tides and Currents Weather Stations Pressure Air Temp Water Temp Dewpoint Dewpoint Depression Visibility Wind Speed Wind Dir Waves Ship Positions

Missouriborg

Last reported at 2018-May-21 18:35 UTC. Time now 2018-May-22 02:05 UTC.
Position N 36°00' W 005°11'.

Length 135 m; draft 7.3 m.

Type: Ship. MMSI: 245170000.

Date/timePositionNaut miles runAvg speedWind from/ knotsBaromVisibWave heightAir tempDewpointWater temp
2018-May-21 18:35N 36°00' W 005°11'114.1
2018-May-21 18:29N 36°00' W 005°12'713.9
2018-May-21 18:00N 35°59' W 005°20'713.7
2018-May-21 17:28N 35°57' W 005°29'16512.0
2018-May-21 03:42N 36°28' W 008°50'2511.7
2018-May-21 01:32N 36°36' W 009°20'111.9
2018-May-21 01:30N 36°36' W 009°21'711.9
2018-May-21 00:55N 36°41' W 009°27'711.8
2018-May-21 00:18N 36°46' W 009°33'411.7
2018-May-20 23:57N 36°50' W 009°35'612.1
2018-May-20 23:29N 36°56' W 009°36'712.1
2018-May-20 22:54N 37°03' W 009°38'511.9
2018-May-20 22:31N 37°07' W 009°39'611.8
2018-May-20 22:00N 37°13' W 009°41'611.9
2018-May-20 21:30N 37°19' W 009°42'611.9
2018-May-20 21:01N 37°25' W 009°44'611.7
2018-May-20 20:30N 37°30' W 009°46'612.1
2018-May-20 20:01N 37°36' W 009°47'612.0
2018-May-20 19:30N 37°42' W 009°49'712.1
2018-May-20 18:58N 37°49' W 009°51'512.0
2018-May-20 18:31N 37°54' W 009°52'611.9
2018-May-20 18:01N 37°60' W 009°54'611.8
2018-May-20 17:30N 38°05' W 009°56'611.6
2018-May-20 17:00N 38°11' W 009°57'612.1
2018-May-20 16:31N 38°17' W 009°59'612.4
2018-May-20 16:01N 38°23' W 010°01'612.6
2018-May-20 15:31N 38°29' W 010°02'612.4
2018-May-20 15:00N 38°35' W 010°04'612.5
2018-May-20 14:30N 38°41' W 010°06'612.3
2018-May-20 14:01N 38°47' W 010°06'612.1
2018-May-20 13:30N 38°54' W 010°06'612.3
2018-May-20 13:01N 38°60' W 010°06'612.3
2018-May-20 12:31N 39°06' W 010°06'612.8
2018-May-20 12:00N 39°12' W 010°06'612.2
2018-May-20 11:30N 39°18' W 010°06'612.0
2018-May-20 11:00N 39°24' W 010°06'612.0
2018-May-20 10:30N 39°30' W 010°06'712.1
2018-May-20 09:56N 39°37' W 010°06'712.3
2018-May-20 09:23N 39°44' W 010°06'512.1
2018-May-20 09:00N 39°49' W 010°06'612.4
2018-May-20 08:29N 39°55' W 010°06'612.3
2018-May-20 08:01N 40°01' W 010°06'612.0
2018-May-20 07:30N 40°07' W 010°06'28111.8
2018-May-19 07:35N 44°44' W 009°02'20811.9
2018-May-18 14:07N 47°47' W 006°40'111.3
2018-May-18 14:00N 47°49' W 006°39'711.8
2018-May-18 13:23N 47°55' W 006°34'512.3
2018-May-18 13:00N 47°59' W 006°31'2213.0
2018-May-18 11:18N 48°19' W 006°15'413.5
2018-May-18 11:00N 48°22' W 006°12'713.7
2018-May-18 10:30N 48°28' W 006°07'713.6
2018-May-18 10:00N 48°34' W 006°02'713.3
2018-May-18 09:30N 48°40' W 005°57'612.9
2018-May-18 09:00N 48°46' W 005°53'612.5
2018-May-18 08:30N 48°51' W 005°48'611.3
2018-May-18 08:00N 48°55' W 005°42'611.1
2018-May-18 07:30N 48°58' W 005°35'510.7
2018-May-18 07:00N 49°01' W 005°28'510.3
2018-May-18 06:30N 49°03' W 005°21'510.2
2018-May-18 06:00N 49°06' W 005°14'510.1
2018-May-18 05:30N 49°08' W 005°08'510.2
2018-May-18 05:00N 49°11' W 005°01'510.6
2018-May-18 04:30N 49°14' W 004°54'510.9
2018-May-18 04:00N 49°16' W 004°47'611.4
2018-May-18 03:30N 49°19' W 004°39'612.0
2018-May-18 03:00N 49°23' W 004°32'612.6
2018-May-18 02:30N 49°26' W 004°23'713.2
2018-May-18 02:00N 49°29' W 004°14'713.6
2018-May-18 01:30N 49°32' W 004°05'713.8
2018-May-18 00:59N 49°36' W 003°56'713.8
2018-May-18 00:30N 49°39' W 003°47'1313.3
2018-May-17 23:32N 49°46' W 003°30'012.7
2018-May-17 23:30N 49°46' W 003°29'612.4
2018-May-17 23:01N 49°49' W 003°21'611.7
2018-May-17 22:28N 49°52' W 003°12'511.0
2018-May-17 22:00N 49°55' W 003°06'510.2
2018-May-17 21:30N 49°57' W 002°59'5 9.7
2018-May-17 20:59N 49°59' W 002°51'5 9.3
2018-May-17 20:27N 50°00' W 002°44'4 9.1
2018-May-17 19:59N 50°01' W 002°37'5 9.4
2018-May-17 19:25N 50°03' W 002°29'5 9.9
2018-May-17 18:52N 50°04' W 002°21'410.5
2018-May-17 18:27N 50°06' W 002°15'511.2
2018-May-17 18:00N 50°07' W 002°07'612.3
2018-May-17 17:30N 50°09' W 001°58'713.4
2018-May-17 17:00N 50°11' W 001°48'714.2
2018-May-17 16:30N 50°13' W 001°38'714.7
2018-May-17 16:00N 50°15' W 001°27'815.1
2018-May-17 15:31N 50°17' W 001°15'815.3
2018-May-17 15:00N 50°19' W 001°04'815.1
2018-May-17 14:28N 50°22' W 000°51'913.7
2018-May-17 13:50N 50°24' W 000°38'613.1
2018-May-17 13:22N 50°26' W 000°29'412.6
2018-May-17 13:00N 50°27' W 000°22'611.9
2018-May-17 12:30N 50°29' W 000°13'611.2
2018-May-17 11:59N 50°30' W 000°04'510.6
2018-May-17 11:29N 50°32' E 000°04'510.0
2018-May-17 11:00N 50°33' E 000°11'5 9.5
2018-May-17 10:30N 50°34' E 000°18'5 9.1
2018-May-17 09:59N 50°35' E 000°25'5 9.3
2018-May-17 09:29N 50°37' E 000°32'510.1
2018-May-17 09:00N 50°39' E 000°39'611.1
2018-May-17 08:30N 50°43' E 000°46'612.1
2018-May-17 08:00N 50°46' E 000°54'713.1
2018-May-17 07:30N 50°50' E 001°02'813.6
2018-May-17 06:54N 50°56' E 001°12'613.8
2018-May-17 06:27N 50°60' E 001°19'813.7
2018-May-17 05:53N 51°05' E 001°28'512.6
2018-May-17 05:30N 51°08' E 001°35'611.5
2018-May-17 05:00N 51°11' E 001°41'511.0
2018-May-17 04:30N 51°16' E 001°47'510.4
2018-May-17 04:00N 51°20' E 001°51'5 9.8
2018-May-17 03:30N 51°24' E 001°55'5 9.6
2018-May-17 03:00N 51°29' E 001°59'5 9.6
2018-May-17 02:29N 51°32' E 002°04'5 9.8
2018-May-17 02:00N 51°36' E 002°09'5 9.7
2018-May-17 01:30N 51°40' E 002°14'5 9.8
2018-May-17 00:57N 51°44' E 002°20'510.5
2018-May-17 00:30N 51°47' E 002°25'511.0
2018-May-17 00:00N 51°51' E 002°31'611.7
2018-May-16 23:29N 51°56' E 002°37'612.1
2018-May-16 23:00N 52°00' E 002°44'612.2
2018-May-16 22:30N 52°05' E 002°50'612.5
2018-May-16 22:00N 52°09' E 002°57'612.6
2018-May-16 21:30N 52°14' E 003°04'612.8
2018-May-16 21:01N 52°19' E 003°09'612.7
2018-May-16 20:31N 52°25' E 003°15'612.5
2018-May-16 20:00N 52°30' E 003°21'612.0
2018-May-16 19:30N 52°35' E 003°27'611.5
2018-May-16 19:00N 52°39' E 003°33'610.8
2018-May-16 18:30N 52°43' E 003°38'510.6
2018-May-16 18:01N 52°48' E 003°44'510.2
2018-May-16 17:30N 52°52' E 003°49'5 9.9
2018-May-16 17:01N 52°55' E 003°54'5 9.8
2018-May-16 16:30N 52°59' E 004°00'5 9.6
2018-May-16 15:59N 53°02' E 004°07'5 9.9
2018-May-16 15:26N 53°05' E 004°13'510.5
2018-May-16 14:58N 53°08' E 004°20'510.8
2018-May-16 14:29N 53°13' E 004°25'711.9
2018-May-16 13:53N 53°19' E 004°30'1312.2
2018-May-16 12:47N 53°32' E 004°36'411.9
2018-May-16 12:27N 53°36' E 004°38'11811.5
2018-May-16 02:09N 55°22' E 006°09'212.2
2018-May-16 01:57N 55°24' E 006°11'612.2
2018-May-16 01:30N 55°28' E 006°17'612.2
2018-May-16 01:00N 55°33' E 006°23'15311.5
2018-May-15 11:43N 57°32' E 009°18'311.4
2018-May-15 11:30N 57°33' E 009°22'611.4
2018-May-15 11:01N 57°35' E 009°32'611.5
2018-May-15 10:30N 57°38' E 009°41'611.5
2018-May-15 10:01N 57°41' E 009°51'611.5
2018-May-15 09:30N 57°42' E 010°01'611.8
2018-May-15 09:00N 57°45' E 010°11'611.4
2018-May-15 08:31N 57°47' E 010°21'611.5
2018-May-15 08:01N 57°48' E 010°32'611.9
2018-May-15 07:30N 57°48' E 010°43'611.5
2018-May-15 07:00N 57°47' E 010°53'611.4
2018-May-15 06:31N 57°44' E 011°03'611.6
2018-May-15 06:00N 57°42' E 011°13'611.7
2018-May-15 05:30N 57°39' E 011°23'611.7
2018-May-15 05:01N 57°37' E 011°33'4 8.9
2018-May-15 04:31N 57°36' E 011°41'0 0.1
2018-May-15 04:00N 57°36' E 011°41'0 0.0
2018-May-15 03:31N 57°36' E 011°41'0 0.0
2018-May-15 03:00N 57°36' E 011°41'0 0.1
2018-May-15 02:31N 57°36' E 011°41'0 0.0
2018-May-15 02:01N 57°36' E 011°41'0 0.0
2018-May-15 01:31N 57°36' E 011°40'0 0.0
2018-May-15 01:01N 57°36' E 011°40'0 0.0
2018-May-15 00:31N 57°36' E 011°40'0 0.2
2018-May-15 00:00N 57°36' E 011°40'2 4.9
2018-May-14 23:30N 57°34' E 011°37'611.5
2018-May-14 23:01N 57°29' E 011°35'611.8
2018-May-14 22:31N 57°23' E 011°35'611.8
2018-May-14 22:01N 57°17' E 011°36'611.9
2018-May-14 21:30N 57°11' E 011°37'612.1
2018-May-14 21:00N 57°05' E 011°41'612.0
2018-May-14 20:29N 56°59' E 011°45'611.5
2018-May-14 19:58N 56°54' E 011°49'4211.2
2018-May-14 16:14N 56°14' E 012°15'311.6
2018-May-14 15:56N 56°12' E 012°20'511.4
2018-May-14 15:30N 56°09' E 012°27'612.4
2018-May-14 15:00N 56°05' E 012°36'612.4
2018-May-14 14:30N 56°00' E 012°41'611.8
2018-May-14 14:00N 55°55' E 012°44'611.8
2018-May-14 13:30N 55°49' E 012°43'611.9
2018-May-14 13:00N 55°43' E 012°41'611.1
2018-May-14 12:30N 55°37' E 012°42'5 9.5
2018-May-14 12:00N 55°33' E 012°43'611.4
2018-May-14 11:31N 55°27' E 012°42'611.5
2018-May-14 11:00N 55°21' E 012°40'510.6
2018-May-14 10:29N 55°17' E 012°47'711.6
2018-May-14 09:55N 55°16' E 012°58'711.8
2018-May-14 09:22N 55°15' E 013°10'1311.9
2018-May-14 08:15N 55°15' E 013°33'412.1
2018-May-14 07:57N 55°15' E 013°39'612.2
2018-May-14 07:28N 55°14' E 013°49'612.2
2018-May-14 07:00N 55°14' E 013°59'612.1
2018-May-14 06:30N 55°14' E 014°10'510.8
2018-May-14 06:01N 55°16' E 014°18'612.0
2018-May-14 05:31N 55°20' E 014°26'612.2
2018-May-14 05:01N 55°25' E 014°33'611.8
2018-May-14 04:31N 55°28' E 014°41'611.7
2018-May-14 04:00N 55°31' E 014°50'611.9
2018-May-14 03:30N 55°34' E 014°59'611.8
2018-May-14 03:01N 55°37' E 015°08'611.6
2018-May-14 02:30N 55°40' E 015°17'611.8
2018-May-14 02:01N 55°43' E 015°26'611.9
2018-May-14 01:31N 55°46' E 015°35'611.8
2018-May-14 01:00N 55°49' E 015°45'611.8
2018-May-14 00:31N 55°52' E 015°54'611.8
2018-May-14 00:00N 55°55' E 016°03'611.7
2018-May-13 23:30N 55°58' E 016°12'611.8
2018-May-13 23:01N 56°01' E 016°21'611.9
2018-May-13 22:30N 56°04' E 016°30'611.8
2018-May-13 22:00N 56°07' E 016°39'611.2
2018-May-13 21:30N 56°12' E 016°45'611.8
2018-May-13 21:00N 56°17' E 016°49'611.9
2018-May-13 20:30N 56°23' E 016°53'611.8
2018-May-13 20:00N 56°28' E 016°57'16811.7
2018-May-13 05:38N 58°58' E 019°20'112.0
2018-May-13 05:30N 58°60' E 019°22'4011.8
2018-May-13 02:06N 59°35' E 019°58'311.7
2018-May-13 01:50N 59°38' E 019°55'411.8
2018-May-13 01:30N 59°41' E 019°50'1211.8
2018-May-13 00:29N 59°50' E 019°35'611.5
2018-May-12 23:59N 59°55' E 019°28'611.7
2018-May-12 23:30N 59°59' E 019°21'611.9
2018-May-12 23:00N 60°04' E 019°13'611.8
2018-May-12 22:30N 60°08' E 019°05'611.2
2018-May-12 22:00N 60°13' E 019°01'611.6
2018-May-12 21:30N 60°19' E 018°60'611.5
2018-May-12 21:00N 60°25' E 018°59'611.6
2018-May-12 20:30N 60°31' E 018°59'611.4
2018-May-12 20:00N 60°36' E 019°01'  

Dump ship's entire track history